createdAt,value
2023-03-22T00:00:21.038Z,7.66
2023-03-22T00:03:24.930Z,7.65
2023-03-22T00:09:29.418Z,7.67
2023-03-22T00:12:32.096Z,7.60
2023-03-22T00:15:35.134Z,7.64
2023-03-22T00:18:37.948Z,7.66
2023-03-22T00:21:40.667Z,7.66
2023-03-22T00:24:43.521Z,7.71
2023-03-22T00:27:46.205Z,7.72
2023-03-22T00:34:02.030Z,7.72
2023-03-22T00:37:04.987Z,7.74
2023-03-22T00:40:11.146Z,7.76
2023-03-22T00:43:14.429Z,7.76
2023-03-22T00:46:19.553Z,7.68
2023-03-22T00:49:22.369Z,7.61
2023-03-22T00:52:25.517Z,7.64
2023-03-22T00:55:28.200Z,7.61
2023-03-22T00:58:31.047Z,7.61
2023-03-22T01:01:33.733Z,7.61
2023-03-22T01:04:36.739Z,7.63
2023-03-22T01:07:41.779Z,7.64
2023-03-22T01:10:45.036Z,7.67
2023-03-22T01:13:48.160Z,7.70
2023-03-22T01:19:52.725Z,7.61
2023-03-22T01:22:55.655Z,7.65
2023-03-22T01:25:58.372Z,7.68
2023-03-22T01:29:01.110Z,7.62
2023-03-22T01:32:04.399Z,7.67
2023-03-22T01:35:07.482Z,7.69
2023-03-22T01:38:10.327Z,7.71
2023-03-22T01:41:12.977Z,7.66
2023-03-22T01:47:19.877Z,7.61
2023-03-22T01:50:24.624Z,7.60
2023-03-22T01:53:27.503Z,7.61
2023-03-22T01:56:33.293Z,7.63
2023-03-22T01:59:36.831Z,7.57
2023-03-22T02:02:39.743Z,7.60
2023-03-22T02:08:43.967Z,7.59
2023-03-22T02:11:51.538Z,7.62
2023-03-22T02:15:05.422Z,7.58
2023-03-22T02:18:45.803Z,7.57
2023-03-22T02:22:10.030Z,7.53
2023-03-22T02:25:42.067Z,7.51
2023-03-22T02:29:03.767Z,7.52
2023-03-22T02:32:25.657Z,7.54
2023-03-22T02:35:33.918Z,7.58
2023-03-22T02:39:10.585Z,7.56
2023-03-22T02:42:23.567Z,7.61
2023-03-22T02:45:35.223Z,7.62
2023-03-22T02:48:56.345Z,7.57
2023-03-22T02:52:04.045Z,7.61
2023-03-22T02:58:35.172Z,7.64
2023-03-22T03:01:41.433Z,7.58
2023-03-22T03:04:47.163Z,7.61
2023-03-22T03:07:56.252Z,7.61
2023-03-22T03:14:00.577Z,7.61
2023-03-22T03:17:37.222Z,7.63
2023-03-22T03:21:08.926Z,7.56
2023-03-22T03:24:27.746Z,7.55
2023-03-22T03:27:40.439Z,7.60
2023-03-22T03:34:00.488Z,7.61
2023-03-22T03:37:12.369Z,7.62
2023-03-22T03:40:22.229Z,7.53
2023-03-22T03:43:25.924Z,7.51
2023-03-22T03:46:29.540Z,7.53
2023-03-22T03:49:32.639Z,7.55
2023-03-22T03:52:35.909Z,7.59
2023-03-22T03:55:38.704Z,7.66
2023-03-22T03:58:41.735Z,7.71
2023-03-22T04:01:52.832Z,7.75
2023-03-22T04:04:55.856Z,7.77
2023-03-22T04:07:58.537Z,7.81
2023-03-22T04:14:06.209Z,7.90
2023-03-22T04:20:12.950Z,7.89
2023-03-22T04:23:16.368Z,7.87
2023-03-22T04:26:19.085Z,7.86
2023-03-22T04:29:23.114Z,7.89
2023-03-22T04:32:25.794Z,7.84
2023-03-22T04:35:28.371Z,7.86
2023-03-22T04:38:31.192Z,7.86
2023-03-22T04:41:34.978Z,7.89
2023-03-22T04:44:38.418Z,7.90
2023-03-22T04:47:41.261Z,7.90
2023-03-22T04:50:44.047Z,7.87
2023-03-22T04:53:47.235Z,7.90
2023-03-22T04:56:50.751Z,7.90
2023-03-22T04:59:53.492Z,7.89
2023-03-22T05:02:57.422Z,7.84
2023-03-22T05:06:02.105Z,7.76
2023-03-22T05:09:04.953Z,7.94
2023-03-22T05:12:07.890Z,8.00
2023-03-22T05:15:10.761Z,8.07
2023-03-22T05:18:14.601Z,8.09
2023-03-22T05:24:24.197Z,8.21
2023-03-22T05:27:31.858Z,8.27
2023-03-22T05:30:34.548Z,8.34
2023-03-22T05:33:37.307Z,8.37
2023-03-22T05:36:40.004Z,8.46
2023-03-22T05:39:42.807Z,8.56
2023-03-22T05:42:45.943Z,8.68
2023-03-22T05:48:51.488Z,8.86
2023-03-22T05:51:54.688Z,8.92
2023-03-22T06:01:09.352Z,9.07
2023-03-22T06:04:11.982Z,9.12
2023-03-22T06:10:17.258Z,9.16
2023-03-22T06:13:20.746Z,9.20
2023-03-22T06:16:23.600Z,9.24
2023-03-22T06:19:27.051Z,9.29
2023-03-22T06:22:31.922Z,9.38
2023-03-22T06:25:34.722Z,9.47
2023-03-22T06:28:38.168Z,9.58
2023-03-22T06:31:41.185Z,9.68
2023-03-22T06:34:44.281Z,9.79
2023-03-22T06:37:47.131Z,9.92
2023-03-22T06:40:49.855Z,10.02
2023-03-22T06:43:52.732Z,10.16
2023-03-22T06:46:55.654Z,10.27
2023-03-22T06:49:58.479Z,10.37
2023-03-22T06:53:01.444Z,10.46
2023-03-22T06:56:04.735Z,10.56
2023-03-22T06:59:07.528Z,10.62
2023-03-22T07:02:14.048Z,10.67
2023-03-22T07:05:16.745Z,10.72
2023-03-22T07:08:19.715Z,10.85
2023-03-22T07:11:22.748Z,10.94
2023-03-22T07:14:30.429Z,11.03
2023-03-22T07:17:33.533Z,11.12
2023-03-22T07:20:41.735Z,11.24
2023-03-22T07:23:44.668Z,11.33
2023-03-22T07:26:47.387Z,11.44
2023-03-22T07:29:50.099Z,11.52
2023-03-22T07:32:53.167Z,11.62
2023-03-22T07:35:56.099Z,11.67
2023-03-22T07:38:59.223Z,11.74
2023-03-22T07:42:03.725Z,11.85
2023-03-22T07:45:07.092Z,11.94
2023-03-22T07:48:12.110Z,12.07
2023-03-22T07:51:14.760Z,12.17
2023-03-22T07:54:32.082Z,12.30
2023-03-22T07:57:36.077Z,12.38
2023-03-22T08:00:39.083Z,12.46
2023-03-22T08:03:42.020Z,12.56
2023-03-22T08:06:46.685Z,12.63
2023-03-22T08:09:49.741Z,12.75
2023-03-22T08:12:52.402Z,12.93
2023-03-22T08:15:55.218Z,13.06
2023-03-22T08:18:58.937Z,13.30
2023-03-22T08:22:03.931Z,13.52
2023-03-22T08:25:07.501Z,13.70
2023-03-22T08:28:10.920Z,13.94
2023-03-22T08:31:16.092Z,14.00
2023-03-22T08:34:19.217Z,14.21
2023-03-22T08:37:21.961Z,14.40
2023-03-22T08:40:24.555Z,14.27
2023-03-22T08:43:28.233Z,14.43
2023-03-22T08:46:31.256Z,14.79
2023-03-22T08:49:34.826Z,14.95
2023-03-22T08:52:37.838Z,14.96
2023-03-22T08:55:46.632Z,15.21
2023-03-22T08:58:49.605Z,15.29
2023-03-22T09:01:52.475Z,15.24
2023-03-22T09:04:56.367Z,15.65
2023-03-22T09:08:06.075Z,15.61
2023-03-22T09:11:10.629Z,15.89
2023-03-22T09:14:13.524Z,15.74
2023-03-22T09:17:21.246Z,16.00
2023-03-22T09:20:31.969Z,16.24
2023-03-22T09:23:37.259Z,16.11
2023-03-22T09:26:40.128Z,16.54
2023-03-22T09:29:43.011Z,16.40
2023-03-22T09:32:46.208Z,16.48
2023-03-22T09:35:49.372Z,16.85
2023-03-22T09:38:52.348Z,16.94
2023-03-22T09:41:57.984Z,16.83
2023-03-22T09:45:01.982Z,16.73
2023-03-22T09:48:27.218Z,16.88
2023-03-22T09:51:45.219Z,16.62
2023-03-22T09:54:48.257Z,16.57
2023-03-22T09:57:58.956Z,16.55
2023-03-22T10:01:46.279Z,17.23
2023-03-22T10:05:18.343Z,17.82
2023-03-22T10:08:29.771Z,17.88
2023-03-22T10:11:43.815Z,18.24
2023-03-22T10:15:09.327Z,18.24
2023-03-22T10:18:20.911Z,17.67
2023-03-22T10:21:23.732Z,18.10
2023-03-22T10:24:30.615Z,18.72
2023-03-22T10:27:34.653Z,18.51
2023-03-22T10:30:38.830Z,18.51
2023-03-22T10:33:52.954Z,17.92
2023-03-22T10:36:56.257Z,18.84
2023-03-22T10:40:01.242Z,19.26
2023-03-22T10:43:18.390Z,18.80
2023-03-22T10:46:24.819Z,19.47
2023-03-22T10:49:36.283Z,19.16
2023-03-22T10:52:51.622Z,18.74
2023-03-22T10:55:54.756Z,19.37
2023-03-22T10:58:58.471Z,19.14
2023-03-22T11:02:01.978Z,18.83
2023-03-22T11:05:07.376Z,19.72
2023-03-22T11:08:15.119Z,20.00
2023-03-22T11:11:26.348Z,20.59
2023-03-22T11:14:38.242Z,19.69
2023-03-22T11:17:42.750Z,20.37
2023-03-22T11:21:01.587Z,19.81
2023-03-22T11:24:06.055Z,20.11
2023-03-22T11:27:21.598Z,19.96
2023-03-22T11:30:26.273Z,19.31
2023-03-22T11:33:29.312Z,19.19
2023-03-22T11:36:33.237Z,19.03
2023-03-22T11:39:36.163Z,18.75
2023-03-22T11:42:39.551Z,18.83
2023-03-22T11:45:47.327Z,19.02
2023-03-22T11:48:52.379Z,19.03
2023-03-22T11:51:56.576Z,19.10
2023-03-22T11:55:00.436Z,19.39
2023-03-22T11:58:06.277Z,19.88
2023-03-22T12:01:19.924Z,20.98
2023-03-22T12:04:28.088Z,22.58
2023-03-22T12:07:32.283Z,21.95
2023-03-22T12:10:48.344Z,22.35
2023-03-22T12:13:58.855Z,22.86
2023-03-22T12:17:24.538Z,22.83
2023-03-22T12:20:43.017Z,22.12
2023-03-22T12:23:46.078Z,21.70
2023-03-22T12:26:49.514Z,21.76
2023-03-22T12:30:00.168Z,21.45
2023-03-22T12:33:17.302Z,21.81
2023-03-22T12:36:24.170Z,21.85
2023-03-22T12:39:31.647Z,22.66
2023-03-22T12:42:58.988Z,22.99
2023-03-22T12:46:05.070Z,23.16
2023-03-22T12:49:36.070Z,23.13
2023-03-22T12:52:50.941Z,24.84
2023-03-22T12:55:55.754Z,24.85
2023-03-22T12:59:03.988Z,24.03
2023-03-22T13:02:15.078Z,22.48
2023-03-22T13:05:19.307Z,23.78
2023-03-22T13:08:23.100Z,23.83
2023-03-22T13:11:26.483Z,24.29
2023-03-22T13:14:49.747Z,25.06
2023-03-22T13:17:57.049Z,24.99
2023-03-22T13:21:19.308Z,25.66
2023-03-22T13:24:23.382Z,24.84
2023-03-22T13:27:38.091Z,24.72
2023-03-22T13:30:58.215Z,24.68
2023-03-22T13:34:04.276Z,22.66
2023-03-22T13:37:35.166Z,21.58
2023-03-22T13:40:44.276Z,21.43
2023-03-22T13:43:50.449Z,23.26
2023-03-22T13:46:54.110Z,24.23
2023-03-22T13:50:24.321Z,24.47
2023-03-22T13:53:31.119Z,24.20
2023-03-22T13:57:01.362Z,22.19
2023-03-22T14:00:15.558Z,21.66
2023-03-22T14:03:30.438Z,21.39
2023-03-22T14:06:39.327Z,21.61
2023-03-22T14:09:54.816Z,23.33
2023-03-22T14:13:06.357Z,25.12
2023-03-22T14:16:14.283Z,25.89
2023-03-22T14:19:21.819Z,23.86
